sensor_id;sensor_type;location;lat;lon;timestamp;P1;durP1;ratioP1;P2;durP2;ratioP2
21089;SDS011;10703;51.020;6.128;2023-08-30T00:01:00;28.13;;;20.77;;
21089;SDS011;10703;51.020;6.128;2023-08-30T00:03:27;25.93;;;19.93;;
21089;SDS011;10703;51.020;6.128;2023-08-30T00:05:54;26.10;;;20.30;;
21089;SDS011;10703;51.020;6.128;2023-08-30T00:08:21;27.53;;;21.40;;
21089;SDS011;10703;51.020;6.128;2023-08-30T00:10:48;31.87;;;20.83;;
21089;SDS011;10703;51.020;6.128;2023-08-30T00:13:15;32.20;;;20.77;;
21089;SDS011;10703;51.020;6.128;2023-08-30T00:15:41;35.73;;;22.27;;
21089;SDS011;10703;51.020;6.128;2023-08-30T00:18:08;28.10;;;21.30;;
21089;SDS011;10703;51.020;6.128;2023-08-30T00:20:35;25.87;;;20.57;;
21089;SDS011;10703;51.020;6.128;2023-08-30T00:23:02;33.27;;;21.07;;
21089;SDS011;10703;51.020;6.128;2023-08-30T00:25:29;30.43;;;22.77;;
21089;SDS011;10703;51.020;6.128;2023-08-30T00:27:56;33.13;;;22.40;;
21089;SDS011;10703;51.020;6.128;2023-08-30T00:30:22;30.77;;;21.67;;
21089;SDS011;10703;51.020;6.128;2023-08-30T00:32:49;32.83;;;21.30;;
21089;SDS011;10703;51.020;6.128;2023-08-30T00:35:16;30.63;;;21.80;;
21089;SDS011;10703;51.020;6.128;2023-08-30T00:37:43;36.63;;;23.10;;
21089;SDS011;10703;51.020;6.128;2023-08-30T00:40:09;31.93;;;22.67;;
21089;SDS011;10703;51.020;6.128;2023-08-30T00:42:36;36.37;;;27.57;;
21089;SDS011;10703;51.020;6.128;2023-08-30T00:45:03;29.00;;;22.60;;
21089;SDS011;10703;51.020;6.128;2023-08-30T00:47:30;31.57;;;22.97;;
21089;SDS011;10703;51.020;6.128;2023-08-30T00:49:57;33.80;;;24.43;;
21089;SDS011;10703;51.020;6.128;2023-08-30T00:52:24;32.40;;;23.93;;
21089;SDS011;10703;51.020;6.128;2023-08-30T00:54:51;34.60;;;24.30;;
21089;SDS011;10703;51.020;6.128;2023-08-30T00:57:17;32.90;;;24.40;;
21089;SDS011;10703;51.020;6.128;2023-08-30T00:59:44;41.17;;;26.67;;
21089;SDS011;10703;51.020;6.128;2023-08-30T01:02:10;51.93;;;29.27;;
21089;SDS011;10703;51.020;6.128;2023-08-30T01:04:38;41.70;;;27.87;;
21089;SDS011;10703;51.020;6.128;2023-08-30T01:07:05;39.37;;;28.33;;
21089;SDS011;10703;51.020;6.128;2023-08-30T01:09:31;43.50;;;28.90;;
21089;SDS011;10703;51.020;6.128;2023-08-30T01:12:04;45.63;;;27.90;;
21089;SDS011;10703;51.020;6.128;2023-08-30T01:14:50;37.43;;;25.97;;
21089;SDS011;10703;51.020;6.128;2023-08-30T01:17:26;44.30;;;27.57;;
21089;SDS011;10703;51.020;6.128;2023-08-30T01:25:17;53.30;;;32.37;;
21089;SDS011;10703;51.020;6.128;2023-08-30T01:28:04;51.60;;;34.33;;
21089;SDS011;10703;51.020;6.128;2023-08-30T01:30:32;57.80;;;35.03;;
21089;SDS011;10703;51.020;6.128;2023-08-30T01:33:01;59.77;;;35.03;;
21089;SDS011;10703;51.020;6.128;2023-08-30T01:35:29;58.57;;;36.50;;
21089;SDS011;10703;51.020;6.128;2023-08-30T01:37:59;59.67;;;35.30;;
21089;SDS011;10703;51.020;6.128;2023-08-30T01:40:28;53.53;;;35.27;;
21089;SDS011;10703;51.020;6.128;2023-08-30T01:42:56;53.97;;;34.70;;
21089;SDS011;10703;51.020;6.128;2023-08-30T01:45:24;54.33;;;36.47;;
21089;SDS011;10703;51.020;6.128;2023-08-30T01:47:53;62.53;;;36.30;;
21089;SDS011;10703;51.020;6.128;2023-08-30T01:50:22;62.77;;;36.37;;
21089;SDS011;10703;51.020;6.128;2023-08-30T01:52:49;56.60;;;36.43;;
21089;SDS011;10703;51.020;6.128;2023-08-30T01:55:17;58.53;;;34.63;;
21089;SDS011;10703;51.020;6.128;2023-08-30T01:57:46;60.63;;;36.17;;
21089;SDS011;10703;51.020;6.128;2023-08-30T02:00:13;56.53;;;35.13;;
21089;SDS011;10703;51.020;6.128;2023-08-30T02:02:40;57.50;;;34.60;;
21089;SDS011;10703;51.020;6.128;2023-08-30T02:05:07;53.50;;;32.13;;
21089;SDS011;10703;51.020;6.128;2023-08-30T02:10:24;48.20;;;32.43;;
21089;SDS011;10703;51.020;6.128;2023-08-30T02:12:54;46.00;;;30.50;;
21089;SDS011;10703;51.020;6.128;2023-08-30T02:15:21;42.13;;;29.93;;
21089;SDS011;10703;51.020;6.128;2023-08-30T02:17:52;46.23;;;30.27;;
21089;SDS011;10703;51.020;6.128;2023-08-30T02:20:19;46.83;;;30.60;;
21089;SDS011;10703;51.020;6.128;2023-08-30T02:22:46;44.13;;;30.60;;
21089;SDS011;10703;51.020;6.128;2023-08-30T02:25:13;46.07;;;30.23;;
21089;SDS011;10703;51.020;6.128;2023-08-30T02:27:39;40.97;;;28.97;;
21089;SDS011;10703;51.020;6.128;2023-08-30T02:30:06;41.53;;;27.53;;
21089;SDS011;10703;51.020;6.128;2023-08-30T02:32:33;35.83;;;27.70;;
21089;SDS011;10703;51.020;6.128;2023-08-30T02:35:01;37.70;;;27.07;;
21089;SDS011;10703;51.020;6.128;2023-08-30T02:37:28;36.20;;;27.37;;
21089;SDS011;10703;51.020;6.128;2023-08-30T02:39:55;47.17;;;28.47;;
21089;SDS011;10703;51.020;6.128;2023-08-30T02:42:21;36.37;;;27.23;;
21089;SDS011;10703;51.020;6.128;2023-08-30T02:44:48;39.03;;;27.33;;
21089;SDS011;10703;51.020;6.128;2023-08-30T02:47:15;38.33;;;27.03;;
21089;SDS011;10703;51.020;6.128;2023-08-30T02:49:42;36.53;;;26.50;;
21089;SDS011;10703;51.020;6.128;2023-08-30T02:52:08;38.67;;;25.67;;
21089;SDS011;10703;51.020;6.128;2023-08-30T02:54:35;37.57;;;27.13;;
21089;SDS011;10703;51.020;6.128;2023-08-30T02:57:02;38.63;;;27.10;;
21089;SDS011;10703;51.020;6.128;2023-08-30T02:59:30;37.30;;;25.37;;
21089;SDS011;10703;51.020;6.128;2023-08-30T03:01:57;37.97;;;26.40;;
21089;SDS011;10703;51.020;6.128;2023-08-30T03:04:23;37.87;;;27.10;;
21089;SDS011;10703;51.020;6.128;2023-08-30T03:06:50;40.00;;;27.40;;
21089;SDS011;10703;51.020;6.128;2023-08-30T03:09:16;34.33;;;26.00;;
21089;SDS011;10703;51.020;6.128;2023-08-30T03:11:43;41.83;;;27.20;;
21089;SDS011;10703;51.020;6.128;2023-08-30T03:14:10;38.50;;;27.23;;
21089;SDS011;10703;51.020;6.128;2023-08-30T03:16:36;36.60;;;26.50;;
21089;SDS011;10703;51.020;6.128;2023-08-30T03:19:03;36.60;;;26.27;;
21089;SDS011;10703;51.020;6.128;2023-08-30T03:21:30;38.93;;;27.27;;
21089;SDS011;10703;51.020;6.128;2023-08-30T03:23:57;38.83;;;27.30;;
21089;SDS011;10703;51.020;6.128;2023-08-30T03:26:23;39.80;;;28.63;;
21089;SDS011;10703;51.020;6.128;2023-08-30T03:28:50;38.00;;;26.37;;
21089;SDS011;10703;51.020;6.128;2023-08-30T03:31:17;36.30;;;25.87;;
21089;SDS011;10703;51.020;6.128;2023-08-30T03:33:45;33.23;;;25.03;;
21089;SDS011;10703;51.020;6.128;2023-08-30T03:36:14;35.00;;;25.43;;
21089;SDS011;10703;51.020;6.128;2023-08-30T03:38:42;33.90;;;25.77;;
21089;SDS011;10703;51.020;6.128;2023-08-30T03:41:10;32.77;;;24.53;;
21089;SDS011;10703;51.020;6.128;2023-08-30T03:43:37;29.40;;;23.67;;
21089;SDS011;10703;51.020;6.128;2023-08-30T03:46:04;30.37;;;23.23;;
21089;SDS011;10703;51.020;6.128;2023-08-30T03:48:31;33.30;;;24.07;;
21089;SDS011;10703;51.020;6.128;2023-08-30T03:50:58;27.43;;;23.13;;
21089;SDS011;10703;51.020;6.128;2023-08-30T03:53:25;29.00;;;23.93;;
21089;SDS011;10703;51.020;6.128;2023-08-30T03:55:52;31.67;;;21.93;;
21089;SDS011;10703;51.020;6.128;2023-08-30T03:58:19;30.87;;;22.93;;
21089;SDS011;10703;51.020;6.128;2023-08-30T04:00:46;27.70;;;22.47;;
21089;SDS011;10703;51.020;6.128;2023-08-30T04:03:13;27.93;;;22.70;;
21089;SDS011;10703;51.020;6.128;2023-08-30T04:05:41;32.90;;;22.57;;
21089;SDS011;10703;51.020;6.128;2023-08-30T04:08:09;32.27;;;22.47;;
21089;SDS011;10703;51.020;6.128;2023-08-30T04:10:38;31.47;;;21.83;;
21089;SDS011;10703;51.020;6.128;2023-08-30T04:13:06;24.87;;;21.73;;
21089;SDS011;10703;51.020;6.128;2023-08-30T04:15:36;31.20;;;21.17;;
21089;SDS011;10703;51.020;6.128;2023-08-30T04:18:03;30.40;;;21.17;;
21089;SDS011;10703;51.020;6.128;2023-08-30T04:20:31;29.77;;;21.30;;
21089;SDS011;10703;51.020;6.128;2023-08-30T04:22:59;25.90;;;21.47;;
21089;SDS011;10703;51.020;6.128;2023-08-30T04:25:29;25.80;;;21.00;;
21089;SDS011;10703;51.020;6.128;2023-08-30T04:27:56;26.83;;;20.63;;
21089;SDS011;10703;51.020;6.128;2023-08-30T04:30:23;27.30;;;20.80;;
21089;SDS011;10703;51.020;6.128;2023-08-30T04:32:50;30.43;;;20.43;;
21089;SDS011;10703;51.020;6.128;2023-08-30T04:35:17;27.20;;;21.07;;
21089;SDS011;10703;51.020;6.128;2023-08-30T04:37:44;28.27;;;21.13;;
21089;SDS011;10703;51.020;6.128;2023-08-30T04:40:11;26.83;;;20.47;;
21089;SDS011;10703;51.020;6.128;2023-08-30T04:42:38;27.63;;;21.70;;
21089;SDS011;10703;51.020;6.128;2023-08-30T04:45:07;26.07;;;21.73;;
21089;SDS011;10703;51.020;6.128;2023-08-30T04:47:36;31.43;;;21.87;;
21089;SDS011;10703;51.020;6.128;2023-08-30T04:50:02;32.77;;;22.27;;
21089;SDS011;10703;51.020;6.128;2023-08-30T04:52:29;32.77;;;22.63;;
21089;SDS011;10703;51.020;6.128;2023-08-30T04:54:56;26.73;;;21.57;;
21089;SDS011;10703;51.020;6.128;2023-08-30T04:57:23;27.27;;;20.73;;
21089;SDS011;10703;51.020;6.128;2023-08-30T04:59:50;30.10;;;21.10;;
21089;SDS011;10703;51.020;6.128;2023-08-30T05:02:16;25.73;;;20.43;;
21089;SDS011;10703;51.020;6.128;2023-08-30T05:04:43;29.00;;;20.10;;
21089;SDS011;10703;51.020;6.128;2023-08-30T05:07:10;28.53;;;20.50;;
21089;SDS011;10703;51.020;6.128;2023-08-30T05:09:37;27.03;;;19.73;;
21089;SDS011;10703;51.020;6.128;2023-08-30T05:12:03;27.00;;;20.30;;
21089;SDS011;10703;51.020;6.128;2023-08-30T05:14:30;25.47;;;20.00;;
21089;SDS011;10703;51.020;6.128;2023-08-30T05:16:57;28.17;;;19.67;;
21089;SDS011;10703;51.020;6.128;2023-08-30T05:19:24;25.83;;;19.07;;
21089;SDS011;10703;51.020;6.128;2023-08-30T05:21:50;23.80;;;18.40;;
21089;SDS011;10703;51.020;6.128;2023-08-30T05:24:21;27.07;;;18.17;;
21089;SDS011;10703;51.020;6.128;2023-08-30T05:26:48;24.30;;;17.57;;
21089;SDS011;10703;51.020;6.128;2023-08-30T05:29:14;20.47;;;17.10;;
21089;SDS011;10703;51.020;6.128;2023-08-30T05:31:41;25.53;;;16.77;;
21089;SDS011;10703;51.020;6.128;2023-08-30T05:34:09;19.90;;;16.27;;
21089;SDS011;10703;51.020;6.128;2023-08-30T05:36:36;19.00;;;15.73;;
21089;SDS011;10703;51.020;6.128;2023-08-30T05:39:03;23.73;;;17.33;;
21089;SDS011;10703;51.020;6.128;2023-08-30T05:41:29;22.10;;;16.37;;
21089;SDS011;10703;51.020;6.128;2023-08-30T05:43:57;22.63;;;16.60;;
21089;SDS011;10703;51.020;6.128;2023-08-30T05:46:24;18.23;;;15.57;;
21089;SDS011;10703;51.020;6.128;2023-08-30T05:48:51;20.83;;;16.03;;
21089;SDS011;10703;51.020;6.128;2023-08-30T05:51:17;20.47;;;15.23;;
21089;SDS011;10703;51.020;6.128;2023-08-30T05:53:46;21.10;;;15.23;;
21089;SDS011;10703;51.020;6.128;2023-08-30T05:56:12;17.97;;;15.67;;
21089;SDS011;10703;51.020;6.128;2023-08-30T05:58:39;18.83;;;14.87;;
21089;SDS011;10703;51.020;6.128;2023-08-30T06:01:06;19.63;;;14.80;;
21089;SDS011;10703;51.020;6.128;2023-08-30T06:03:33;17.60;;;15.10;;
21089;SDS011;10703;51.020;6.128;2023-08-30T06:06:00;17.60;;;14.43;;
21089;SDS011;10703;51.020;6.128;2023-08-30T06:08:27;14.80;;;13.17;;
21089;SDS011;10703;51.020;6.128;2023-08-30T06:10:54;18.63;;;14.23;;
21089;SDS011;10703;51.020;6.128;2023-08-30T06:13:21;14.43;;;12.93;;
21089;SDS011;10703;51.020;6.128;2023-08-30T06:15:51;15.10;;;12.70;;
21089;SDS011;10703;51.020;6.128;2023-08-30T06:18:18;13.60;;;12.10;;
21089;SDS011;10703;51.020;6.128;2023-08-30T06:20:46;13.87;;;10.93;;
21089;SDS011;10703;51.020;6.128;2023-08-30T06:23:13;13.27;;;11.73;;
21089;SDS011;10703;51.020;6.128;2023-08-30T06:25:41;18.60;;;11.17;;
21089;SDS011;10703;51.020;6.128;2023-08-30T06:28:08;13.90;;;10.43;;
21089;SDS011;10703;51.020;6.128;2023-08-30T06:30:35;15.70;;;10.10;;
21089;SDS011;10703;51.020;6.128;2023-08-30T06:33:02;17.87;;;9.43;;
21089;SDS011;10703;51.020;6.128;2023-08-30T06:35:29;15.97;;;9.37;;
21089;SDS011;10703;51.020;6.128;2023-08-30T06:37:55;14.70;;;9.17;;
21089;SDS011;10703;51.020;6.128;2023-08-30T06:40:22;14.43;;;8.67;;
21089;SDS011;10703;51.020;6.128;2023-08-30T06:42:49;10.97;;;9.10;;
21089;SDS011;10703;51.020;6.128;2023-08-30T06:45:15;10.20;;;8.50;;
21089;SDS011;10703;51.020;6.128;2023-08-30T06:47:42;11.77;;;8.57;;
21089;SDS011;10703;51.020;6.128;2023-08-30T06:50:09;10.43;;;8.33;;
21089;SDS011;10703;51.020;6.128;2023-08-30T06:52:36;9.53;;;7.77;;
21089;SDS011;10703;51.020;6.128;2023-08-30T06:55:03;9.43;;;8.47;;
21089;SDS011;10703;51.020;6.128;2023-08-30T06:57:30;9.70;;;8.70;;
21089;SDS011;10703;51.020;6.128;2023-08-30T06:59:57;8.83;;;7.33;;
21089;SDS011;10703;51.020;6.128;2023-08-30T07:02:25;10.37;;;7.23;;
21089;SDS011;10703;51.020;6.128;2023-08-30T07:04:54;10.50;;;8.23;;
21089;SDS011;10703;51.020;6.128;2023-08-30T07:07:21;9.50;;;7.70;;
21089;SDS011;10703;51.020;6.128;2023-08-30T07:09:47;11.47;;;8.47;;
21089;SDS011;10703;51.020;6.128;2023-08-30T07:12:14;8.60;;;7.57;;
21089;SDS011;10703;51.020;6.128;2023-08-30T07:14:41;8.77;;;7.50;;
21089;SDS011;10703;51.020;6.128;2023-08-30T07:17:07;8.37;;;7.13;;
21089;SDS011;10703;51.020;6.128;2023-08-30T07:19:34;9.00;;;7.57;;
21089;SDS011;10703;51.020;6.128;2023-08-30T07:22:01;8.10;;;6.93;;
21089;SDS011;10703;51.020;6.128;2023-08-30T07:24:27;8.40;;;7.27;;
21089;SDS011;10703;51.020;6.128;2023-08-30T07:26:54;6.97;;;6.37;;
21089;SDS011;10703;51.020;6.128;2023-08-30T07:29:21;9.37;;;6.97;;
21089;SDS011;10703;51.020;6.128;2023-08-30T07:31:47;7.83;;;6.80;;
21089;SDS011;10703;51.020;6.128;2023-08-30T07:34:17;7.23;;;6.53;;
21089;SDS011;10703;51.020;6.128;2023-08-30T07:36:43;7.07;;;6.37;;
21089;SDS011;10703;51.020;6.128;2023-08-30T07:39:13;8.97;;;6.77;;
21089;SDS011;10703;51.020;6.128;2023-08-30T07:41:40;7.50;;;6.17;;
21089;SDS011;10703;51.020;6.128;2023-08-30T07:44:07;12.17;;;7.17;;
21089;SDS011;10703;51.020;6.128;2023-08-30T07:46:34;7.70;;;6.90;;
21089;SDS011;10703;51.020;6.128;2023-08-30T07:49:00;8.13;;;7.30;;
21089;SDS011;10703;51.020;6.128;2023-08-30T07:51:28;9.53;;;7.30;;
21089;SDS011;10703;51.020;6.128;2023-08-30T07:53:55;7.90;;;7.10;;
21089;SDS011;10703;51.020;6.128;2023-08-30T07:56:21;10.17;;;7.60;;
21089;SDS011;10703;51.020;6.128;2023-08-30T07:58:48;10.93;;;7.27;;
21089;SDS011;10703;51.020;6.128;2023-08-30T08:01:14;9.47;;;7.53;;
21089;SDS011;10703;51.020;6.128;2023-08-30T08:03:41;9.50;;;7.43;;
21089;SDS011;10703;51.020;6.128;2023-08-30T08:06:25;9.30;;;7.30;;
21089;SDS011;10703;51.020;6.128;2023-08-30T08:08:52;10.00;;;6.73;;
21089;SDS011;10703;51.020;6.128;2023-08-30T08:11:19;7.53;;;6.67;;
21089;SDS011;10703;51.020;6.128;2023-08-30T08:13:45;7.13;;;6.43;;
21089;SDS011;10703;51.020;6.128;2023-08-30T08:16:12;6.83;;;6.03;;
21089;SDS011;10703;51.020;6.128;2023-08-30T08:18:39;7.17;;;6.47;;
21089;SDS011;10703;51.020;6.128;2023-08-30T08:21:06;7.20;;;6.60;;
21089;SDS011;10703;51.020;6.128;2023-08-30T08:23:33;7.30;;;6.70;;
21089;SDS011;10703;51.020;6.128;2023-08-30T08:26:00;6.93;;;6.27;;
21089;SDS011;10703;51.020;6.128;2023-08-30T08:28:27;8.37;;;6.53;;
21089;SDS011;10703;51.020;6.128;2023-08-30T08:30:53;9.57;;;6.27;;
21089;SDS011;10703;51.020;6.128;2023-08-30T08:33:20;6.97;;;6.10;;
21089;SDS011;10703;51.020;6.128;2023-08-30T08:35:49;6.37;;;5.63;;
21089;SDS011;10703;51.020;6.128;2023-08-30T08:38:16;6.77;;;6.13;;
21089;SDS011;10703;51.020;6.128;2023-08-30T08:40:43;8.30;;;5.80;;
21089;SDS011;10703;51.020;6.128;2023-08-30T08:43:10;6.43;;;5.83;;
21089;SDS011;10703;51.020;6.128;2023-08-30T08:45:38;6.40;;;5.80;;
21089;SDS011;10703;51.020;6.128;2023-08-30T08:48:05;6.53;;;5.27;;
21089;SDS011;10703;51.020;6.128;2023-08-30T08:50:33;6.80;;;5.80;;
21089;SDS011;10703;51.020;6.128;2023-08-30T08:53:01;5.87;;;5.33;;
21089;SDS011;10703;51.020;6.128;2023-08-30T08:55:29;7.40;;;5.50;;
21089;SDS011;10703;51.020;6.128;2023-08-30T08:57:57;6.00;;;5.47;;
21089;SDS011;10703;51.020;6.128;2023-08-30T09:00:25;7.53;;;5.37;;
21089;SDS011;10703;51.020;6.128;2023-08-30T09:02:53;6.77;;;5.50;;
21089;SDS011;10703;51.020;6.128;2023-08-30T09:05:21;5.80;;;5.30;;
21089;SDS011;10703;51.020;6.128;2023-08-30T09:07:48;5.67;;;5.07;;
21089;SDS011;10703;51.020;6.128;2023-08-30T09:10:20;5.30;;;4.80;;
21089;SDS011;10703;51.020;6.128;2023-08-30T09:12:47;5.30;;;4.80;;
21089;SDS011;10703;51.020;6.128;2023-08-30T09:15:14;5.40;;;5.00;;
21089;SDS011;10703;51.020;6.128;2023-08-30T09:17:42;4.70;;;4.30;;
21089;SDS011;10703;51.020;6.128;2023-08-30T09:20:10;5.30;;;4.80;;
21089;SDS011;10703;51.020;6.128;2023-08-30T09:22:38;5.50;;;5.00;;
21089;SDS011;10703;51.020;6.128;2023-08-30T09:25:09;4.67;;;4.33;;
21089;SDS011;10703;51.020;6.128;2023-08-30T09:27:37;5.13;;;4.50;;
21089;SDS011;10703;51.020;6.128;2023-08-30T09:30:08;4.43;;;4.13;;
21089;SDS011;10703;51.020;6.128;2023-08-30T09:32:40;6.33;;;4.80;;
21089;SDS011;10703;51.020;6.128;2023-08-30T09:35:08;4.70;;;4.30;;
21089;SDS011;10703;51.020;6.128;2023-08-30T09:37:35;5.70;;;4.67;;
21089;SDS011;10703;51.020;6.128;2023-08-30T09:40:02;5.00;;;4.53;;
21089;SDS011;10703;51.020;6.128;2023-08-30T09:42:30;5.50;;;5.00;;
21089;SDS011;10703;51.020;6.128;2023-08-30T09:44:57;6.97;;;5.33;;
21089;SDS011;10703;51.020;6.128;2023-08-30T09:47:25;7.00;;;5.60;;
21089;SDS011;10703;51.020;6.128;2023-08-30T09:49:55;6.70;;;6.10;;
21089;SDS011;10703;51.020;6.128;2023-08-30T09:52:24;6.60;;;6.00;;
21089;SDS011;10703;51.020;6.128;2023-08-30T09:54:52;9.50;;;6.33;;
21089;SDS011;10703;51.020;6.128;2023-08-30T09:57:19;6.90;;;6.23;;
21089;SDS011;10703;51.020;6.128;2023-08-30T09:59:47;9.13;;;7.20;;
21089;SDS011;10703;51.020;6.128;2023-08-30T10:02:15;8.17;;;6.70;;
21089;SDS011;10703;51.020;6.128;2023-08-30T10:04:43;8.67;;;6.90;;
21089;SDS011;10703;51.020;6.128;2023-08-30T10:07:11;7.50;;;6.77;;
21089;SDS011;10703;51.020;6.128;2023-08-30T10:09:39;9.03;;;6.60;;
21089;SDS011;10703;51.020;6.128;2023-08-30T10:12:25;9.90;;;7.07;;
21089;SDS011;10703;51.020;6.128;2023-08-30T10:14:53;7.30;;;6.60;;
21089;SDS011;10703;51.020;6.128;2023-08-30T10:17:20;8.07;;;7.33;;
21089;SDS011;10703;51.020;6.128;2023-08-30T10:19:49;7.70;;;7.00;;
21089;SDS011;10703;51.020;6.128;2023-08-30T10:22:17;10.90;;;7.57;;
21089;SDS011;10703;51.020;6.128;2023-08-30T10:24:46;8.30;;;7.43;;
21089;SDS011;10703;51.020;6.128;2023-08-30T10:27:36;8.00;;;7.13;;
21089;SDS011;10703;51.020;6.128;2023-08-30T10:30:06;8.03;;;7.23;;
21089;SDS011;10703;51.020;6.128;2023-08-30T10:32:42;9.13;;;7.23;;
21089;SDS011;10703;51.020;6.128;2023-08-30T10:35:11;8.13;;;7.33;;
21089;SDS011;10703;51.020;6.128;2023-08-30T10:37:39;10.77;;;7.00;;
21089;SDS011;10703;51.020;6.128;2023-08-30T10:40:07;7.87;;;6.90;;
21089;SDS011;10703;51.020;6.128;2023-08-30T10:42:34;10.13;;;7.20;;
21089;SDS011;10703;51.020;6.128;2023-08-30T10:45:01;8.17;;;6.60;;
21089;SDS011;10703;51.020;6.128;2023-08-30T10:47:34;7.90;;;6.87;;
21089;SDS011;10703;51.020;6.128;2023-08-30T10:50:06;7.47;;;6.83;;
21089;SDS011;10703;51.020;6.128;2023-08-30T10:52:34;8.20;;;7.33;;
21089;SDS011;10703;51.020;6.128;2023-08-30T10:55:05;7.93;;;7.23;;
21089;SDS011;10703;51.020;6.128;2023-08-30T10:57:43;8.00;;;7.00;;
21089;SDS011;10703;51.020;6.128;2023-08-30T11:00:12;8.23;;;7.53;;
21089;SDS011;10703;51.020;6.128;2023-08-30T11:02:48;7.03;;;6.33;;
21089;SDS011;10703;51.020;6.128;2023-08-30T11:05:16;9.07;;;7.93;;
21089;SDS011;10703;51.020;6.128;2023-08-30T11:07:43;7.27;;;6.67;;
21089;SDS011;10703;51.020;6.128;2023-08-30T11:10:11;7.60;;;6.90;;
21089;SDS011;10703;51.020;6.128;2023-08-30T11:12:42;8.17;;;7.47;;
21089;SDS011;10703;51.020;6.128;2023-08-30T11:15:10;7.67;;;6.97;;
21089;SDS011;10703;51.020;6.128;2023-08-30T11:17:41;7.93;;;7.03;;
21089;SDS011;10703;51.020;6.128;2023-08-30T11:20:15;6.67;;;6.10;;
21089;SDS011;10703;51.020;6.128;2023-08-30T11:22:47;8.03;;;7.20;;
21089;SDS011;10703;51.020;6.128;2023-08-30T11:25:14;7.23;;;6.63;;
21089;SDS011;10703;51.020;6.128;2023-08-30T11:27:42;7.27;;;6.37;;
21089;SDS011;10703;51.020;6.128;2023-08-30T11:30:10;7.43;;;6.83;;
21089;SDS011;10703;51.020;6.128;2023-08-30T11:32:38;7.83;;;7.13;;
21089;SDS011;10703;51.020;6.128;2023-08-30T11:35:06;6.70;;;6.20;;
21089;SDS011;10703;51.020;6.128;2023-08-30T11:37:33;7.53;;;6.93;;
21089;SDS011;10703;51.020;6.128;2023-08-30T11:40:03;7.60;;;6.90;;
21089;SDS011;10703;51.020;6.128;2023-08-30T11:42:32;6.97;;;6.37;;
21089;SDS011;10703;51.020;6.128;2023-08-30T11:45:00;7.73;;;6.93;;
21089;SDS011;10703;51.020;6.128;2023-08-30T11:47:27;7.40;;;6.70;;
21089;SDS011;10703;51.020;6.128;2023-08-30T11:49:54;7.77;;;6.97;;
21089;SDS011;10703;51.020;6.128;2023-08-30T11:52:23;7.30;;;6.60;;
21089;SDS011;10703;51.020;6.128;2023-08-30T11:54:51;7.60;;;6.90;;
21089;SDS011;10703;51.020;6.128;2023-08-30T11:57:18;7.67;;;6.97;;
21089;SDS011;10703;51.020;6.128;2023-08-30T11:59:45;7.73;;;7.00;;
21089;SDS011;10703;51.020;6.128;2023-08-30T12:02:13;7.57;;;6.87;;
21089;SDS011;10703;51.020;6.128;2023-08-30T12:04:42;7.10;;;6.40;;
21089;SDS011;10703;51.020;6.128;2023-08-30T12:07:24;7.60;;;6.80;;
21089;SDS011;10703;51.020;6.128;2023-08-30T12:09:52;6.73;;;6.23;;
21089;SDS011;10703;51.020;6.128;2023-08-30T12:12:29;6.73;;;6.13;;
21089;SDS011;10703;51.020;6.128;2023-08-30T12:14:57;6.50;;;5.90;;
21089;SDS011;10703;51.020;6.128;2023-08-30T12:17:24;6.37;;;5.87;;
21089;SDS011;10703;51.020;6.128;2023-08-30T12:19:57;6.20;;;5.60;;
21089;SDS011;10703;51.020;6.128;2023-08-30T12:22:37;6.67;;;6.07;;
21089;SDS011;10703;51.020;6.128;2023-08-30T12:25:17;6.40;;;5.90;;
21089;SDS011;10703;51.020;6.128;2023-08-30T12:27:44;5.80;;;5.30;;
21089;SDS011;10703;51.020;6.128;2023-08-30T12:30:11;5.33;;;4.97;;
21089;SDS011;10703;51.020;6.128;2023-08-30T12:32:39;6.10;;;5.60;;
21089;SDS011;10703;51.020;6.128;2023-08-30T12:35:06;5.80;;;5.30;;
21089;SDS011;10703;51.020;6.128;2023-08-30T12:37:33;5.70;;;5.23;;
21089;SDS011;10703;51.020;6.128;2023-08-30T12:40:00;6.40;;;5.90;;
21089;SDS011;10703;51.020;6.128;2023-08-30T12:42:27;6.33;;;5.83;;
21089;SDS011;10703;51.020;6.128;2023-08-30T12:44:54;6.80;;;6.10;;
21089;SDS011;10703;51.020;6.128;2023-08-30T12:47:20;6.57;;;6.00;;
21089;SDS011;10703;51.020;6.128;2023-08-30T12:49:47;6.40;;;5.80;;
21089;SDS011;10703;51.020;6.128;2023-08-30T12:52:14;6.47;;;5.97;;
21089;SDS011;10703;51.020;6.128;2023-08-30T12:54:42;6.60;;;6.10;;
21089;SDS011;10703;51.020;6.128;2023-08-30T12:57:08;6.93;;;6.33;;
21089;SDS011;10703;51.020;6.128;2023-08-30T12:59:35;6.70;;;6.10;;
21089;SDS011;10703;51.020;6.128;2023-08-30T13:02:02;6.03;;;5.33;;
21089;SDS011;10703;51.020;6.128;2023-08-30T13:04:28;6.50;;;6.00;;
21089;SDS011;10703;51.020;6.128;2023-08-30T13:06:55;6.93;;;6.33;;
21089;SDS011;10703;51.020;6.128;2023-08-30T13:09:22;6.40;;;5.80;;
21089;SDS011;10703;51.020;6.128;2023-08-30T13:11:48;6.10;;;5.60;;
21089;SDS011;10703;51.020;6.128;2023-08-30T13:14:15;6.23;;;5.80;;
21089;SDS011;10703;51.020;6.128;2023-08-30T13:16:41;5.70;;;5.30;;
21089;SDS011;10703;51.020;6.128;2023-08-30T13:19:08;6.33;;;5.73;;
21089;SDS011;10703;51.020;6.128;2023-08-30T13:21:35;6.93;;;6.33;;
21089;SDS011;10703;51.020;6.128;2023-08-30T13:24:06;6.40;;;5.90;;
21089;SDS011;10703;51.020;6.128;2023-08-30T13:26:33;7.03;;;6.50;;
21089;SDS011;10703;51.020;6.128;2023-08-30T13:29:00;6.43;;;5.83;;
21089;SDS011;10703;51.020;6.128;2023-08-30T13:31:28;9.00;;;6.50;;
21089;SDS011;10703;51.020;6.128;2023-08-30T13:33:55;8.00;;;7.30;;
21089;SDS011;10703;51.020;6.128;2023-08-30T13:36:21;7.87;;;6.97;;
21089;SDS011;10703;51.020;6.128;2023-08-30T13:38:48;8.33;;;7.10;;
21089;SDS011;10703;51.020;6.128;2023-08-30T13:41:15;7.10;;;6.43;;
21089;SDS011;10703;51.020;6.128;2023-08-30T13:43:41;7.37;;;6.77;;
21089;SDS011;10703;51.020;6.128;2023-08-30T13:46:08;7.40;;;6.70;;
21089;SDS011;10703;51.020;6.128;2023-08-30T13:48:35;7.03;;;6.33;;
21089;SDS011;10703;51.020;6.128;2023-08-30T13:51:01;6.93;;;6.33;;
21089;SDS011;10703;51.020;6.128;2023-08-30T13:53:28;7.40;;;6.30;;
21089;SDS011;10703;51.020;6.128;2023-08-30T13:55:55;6.93;;;6.30;;
21089;SDS011;10703;51.020;6.128;2023-08-30T13:58:21;6.70;;;6.10;;
21089;SDS011;10703;51.020;6.128;2023-08-30T14:00:48;6.93;;;6.37;;
21089;SDS011;10703;51.020;6.128;2023-08-30T14:03:14;6.77;;;6.10;;
21089;SDS011;10703;51.020;6.128;2023-08-30T14:05:41;6.73;;;6.13;;
21089;SDS011;10703;51.020;6.128;2023-08-30T14:08:08;6.80;;;6.20;;
21089;SDS011;10703;51.020;6.128;2023-08-30T14:10:35;6.50;;;5.90;;
21089;SDS011;10703;51.020;6.128;2023-08-30T14:13:02;6.67;;;6.07;;
21089;SDS011;10703;51.020;6.128;2023-08-30T14:15:29;6.60;;;6.03;;
21089;SDS011;10703;51.020;6.128;2023-08-30T14:17:56;8.97;;;6.50;;
21089;SDS011;10703;51.020;6.128;2023-08-30T14:20:22;7.10;;;6.50;;
21089;SDS011;10703;51.020;6.128;2023-08-30T14:22:49;7.77;;;6.50;;
21089;SDS011;10703;51.020;6.128;2023-08-30T14:25:16;6.90;;;6.33;;
21089;SDS011;10703;51.020;6.128;2023-08-30T14:27:43;7.50;;;6.53;;
21089;SDS011;10703;51.020;6.128;2023-08-30T14:30:10;6.53;;;5.93;;
21089;SDS011;10703;51.020;6.128;2023-08-30T14:32:37;6.37;;;5.77;;
21089;SDS011;10703;51.020;6.128;2023-08-30T14:35:03;6.10;;;5.50;;
21089;SDS011;10703;51.020;6.128;2023-08-30T14:37:30;5.90;;;5.40;;
21089;SDS011;10703;51.020;6.128;2023-08-30T14:39:57;6.00;;;5.17;;
21089;SDS011;10703;51.020;6.128;2023-08-30T14:42:24;5.63;;;5.23;;
21089;SDS011;10703;51.020;6.128;2023-08-30T14:44:50;6.03;;;5.47;;
21089;SDS011;10703;51.020;6.128;2023-08-30T14:47:17;5.90;;;5.27;;